Georgetown, SC

1:42 AM EDT on May 30, 2015 (GMT -0400)
Conway-Horry County | | Change Station
CLOSE
Current Station
Airport
Location: Conway,
Elevation: 33 ft
Nearby Weather Stations

Elev 33 ft 33.83 °N, 79.12 °W | Updated 7 minutes ago

Partly Cloudy
Partly Cloudy
64 °F
Feels Like 64 °F
N
0
Wind Variable Wind from North

Today
High -- | Low -- °F
--% Chance of Precip.
Yesterday
High -- | Low -- °F
Precip. -- in
6:08 AM 8:20 PM
Waxing Gibbous, 88% visible
Pressure 30.18 in
Visibility 7.0 miles
Clouds Scattered Clouds 2800 ft
Dew Point 64 °F
Humidity 100%
Rainfall 0.00 in
Snow Depth Not available.
UV 0 out of 12
Pollen 7.10 out of 12
Air Quality Not available.
Flu Activity Local Activity
METAR KHYW 300535Z AUTO 00000KT 7SM SCT028 18/18 A3018 RMK AO2

More Conditions Fewer Conditions

Pressure 30.18 in
Visibility 7.0 miles
Clouds Scattered Clouds 2800 ft
Dew Point 64 °F
Humidity 100%
Rainfall 0.00 in
Snow Depth Not available.
UV 0 out of 12
Pollen 7.10 out of 12
Air Quality Not available.
Flu Activity Local Activity
METAR KHYW 300535Z AUTO 00000KT 7SM SCT028 18/18 A3018 RMK AO2

More Conditions Fewer Conditions

10-Day Weather Forecast

Almanac

Astronomy

May. 30, 2015 Rise Set
Actual Time
Civil Twilight
Nautical Twilight
Astronomical Twilight
Moon
Length of Visible Light
Length of Day
Tomorrow will be .
, % of the Moon is Illuminated

Today's Extremes

State Highs State Lows

Community

WunderPhotos

Upload Photos

1,825,473 photos uploaded!

WunderBlogs® & News

Nearby

Air Quality

  Air Quality AQ Index Pollutant
Not available.

Snow Depth

Station Depth Elevation

Earthquake Activity

City Distance Mag. Time & Date
Minimum magnitude displayed is 2.5.

Coastal Water Temperatures

Place Temperature

Stations

Nearby Weather Stations

Station Location Temp. Windchill Dew Point Humidity Wind Precip. Elev Updated Type